Time;durP1;ratioP1;P1;durP2;ratioP2;P2;SDS_P1;SDS_P2;PMS_P1;PMS_P2;Temp;Humidity;BMP_temperature;BMP_pressure;BME280_temperature;BME280_humidity;BME280_pressure;Samples;Min_cycle;Max_cycle;Signal;HPM_P1;HPM_P2
2023/10/08 00:01:51;;;;;;;;;;;18.60;99.90;;;;;;8402316;28;19932;-70
2023/10/08 00:05:52;;;;;;;;;;;18.60;99.90;;;;;;8404839;28;19924;-71
2023/10/08 00:09:55;;;;;;;;;;;18.60;99.90;;;;;;8397757;28;20358;-71
2023/10/08 00:13:56;;;;;;;;;;;18.60;99.90;;;;;;8418928;28;20375;-71
2023/10/08 00:18:00;;;;;;;;;;;18.60;99.90;;;;;;8402727;28;20345;-71
2023/10/08 00:22:05;;;;;;;;;;;18.50;99.90;;;;;;8418577;28;19977;-71
2023/10/08 00:26:07;;;;;;;;;;;18.50;99.90;;;;;;8422678;28;19924;-71
2023/10/08 00:30:17;;;;;;;;;;;18.50;99.90;;;;;;8395627;28;19924;-71
2023/10/08 00:34:20;;;;;;;;;;;18.40;99.90;;;;;;8416883;28;19971;-71
2023/10/08 00:38:22;;;;;;;;;;;18.40;99.90;;;;;;8397725;28;19935;-70
2023/10/08 00:42:25;;;;;;;;;;;18.40;99.90;;;;;;8423614;28;19924;-71
2023/10/08 00:46:31;;;;;;;;;;;18.40;99.90;;;;;;8400423;28;19924;-71
2023/10/08 00:50:42;;;;;;;;;;;18.40;99.90;;;;;;8418119;28;20284;-71
2023/10/08 00:58:59;;;;;;;;;;;18.40;99.90;;;;;;8418035;28;20291;-70
2023/10/08 01:03:01;;;;;;;;;;;18.40;99.90;;;;;;8420410;28;19923;-71
2023/10/08 01:07:13;;;;;;;;;;;18.40;99.90;;;;;;8412131;28;20367;-70
2023/10/08 01:11:19;;;;;;;;;;;18.40;99.90;;;;;;8415742;28;20406;-70
2023/10/08 01:15:28;;;;;;;;;;;18.40;99.90;;;;;;8419375;28;19963;-70
2023/10/08 01:19:31;;;;;;;;;;;18.40;99.90;;;;;;8420637;28;19931;-70
2023/10/08 01:23:33;;;;;;;;;;;18.30;99.90;;;;;;8416771;28;20390;-70
2023/10/08 01:37:41;;;;;;;;;;;18.20;99.90;;;;;;8415871;28;19919;-70
2023/10/08 01:41:51;;;;;;;;;;;18.10;99.90;;;;;;8423690;28;20342;-71
2023/10/08 01:45:52;;;;;;;;;;;18.10;99.90;;;;;;8418144;28;19967;-70
2023/10/08 01:50:04;;;;;;;;;;;18.10;99.90;;;;;;8415400;28;19924;-71
2023/10/08 01:54:10;;;;;;;;;;;18.10;99.90;;;;;;8416276;28;19978;-71
2023/10/08 02:13:23;;;;;;;;;;;18.10;99.90;;;;;;8421806;28;20037;-71
2023/10/08 02:17:24;;;;;;;;;;;18.10;99.90;;;;;;8424948;28;19924;-71
2023/10/08 02:21:27;;;;;;;;;;;18.10;99.90;;;;;;8425484;28;19924;-71
2023/10/08 02:25:28;;;;;;;;;;;18.10;99.90;;;;;;8399837;28;19967;-71
2023/10/08 02:29:30;;;;;;;;;;;18.10;99.90;;;;;;8401156;28;19931;-71
2023/10/08 02:33:34;;;;;;;;;;;18.00;99.90;;;;;;8425431;28;19924;-71
2023/10/08 02:37:36;;;;;;;;;;;18.00;99.90;;;;;;8424763;28;20459;-71
2023/10/08 02:41:41;;;;;;;;;;;18.00;99.90;;;;;;8404084;28;19978;-71
2023/10/08 02:45:47;;;;;;;;;;;18.00;99.90;;;;;;8401173;28;19931;-71
2023/10/08 02:49:49;;;;;;;;;;;17.90;99.90;;;;;;8410185;28;20205;-70
2023/10/08 02:53:50;;;;;;;;;;;17.90;99.90;;;;;;8421903;28;19986;-71
2023/10/08 02:57:52;;;;;;;;;;;17.90;99.90;;;;;;8418964;28;19970;-70
2023/10/08 03:01:55;;;;;;;;;;;17.90;99.90;;;;;;8420213;28;19923;-71
2023/10/08 03:05:57;;;;;;;;;;;17.90;99.90;;;;;;8422084;28;19930;-70
2023/10/08 03:10:06;;;;;;;;;;;17.90;99.90;;;;;;8405424;28;19954;-70
2023/10/08 03:14:14;;;;;;;;;;;17.80;99.90;;;;;;8420289;28;20294;-70
2023/10/08 03:18:16;;;;;;;;;;;17.80;99.90;;;;;;8401038;28;19924;-70
2023/10/08 03:22:19;;;;;;;;;;;17.80;99.90;;;;;;8424458;28;19936;-71
2023/10/08 03:26:38;;;;;;;;;;;17.80;99.90;;;;;;8420147;28;19945;-71
2023/10/08 03:30:49;;;;;;;;;;;17.80;99.90;;;;;;8423911;28;19981;-71
2023/10/08 03:34:54;;;;;;;;;;;17.80;99.90;;;;;;8420332;28;20007;-71
2023/10/08 03:38:57;;;;;;;;;;;17.70;99.90;;;;;;8422049;28;19924;-70
2023/10/08 03:42:59;;;;;;;;;;;17.70;99.90;;;;;;8395322;28;19935;-70
2023/10/08 03:47:09;;;;;;;;;;;17.60;99.90;;;;;;8419636;28;19931;-71
2023/10/08 03:51:12;;;;;;;;;;;17.60;99.90;;;;;;8419258;28;19931;-70
2023/10/08 03:55:21;;;;;;;;;;;17.60;99.90;;;;;;8414525;28;19924;-71
2023/10/08 03:59:33;;;;;;;;;;;17.50;99.90;;;;;;8420545;28;19924;-71
2023/10/08 04:12:10;;;;;;;;;;;17.50;99.90;;;;;;8416982;28;19924;-70
2023/10/08 04:16:12;;;;;;;;;;;17.60;99.90;;;;;;8420725;28;20449;-70
2023/10/08 04:24:35;;;;;;;;;;;17.50;99.90;;;;;;8422973;28;19931;-70
2023/10/08 04:28:37;;;;;;;;;;;17.60;99.90;;;;;;8411515;28;19932;-71
2023/10/08 04:32:39;;;;;;;;;;;17.50;99.90;;;;;;8394710;28;19924;-71
2023/10/08 04:36:54;;;;;;;;;;;17.50;99.90;;;;;;8423868;28;19997;-71
2023/10/08 04:41:01;;;;;;;;;;;17.50;99.90;;;;;;8418432;28;20333;-71
2023/10/08 04:45:03;;;;;;;;;;;17.50;99.90;;;;;;8402537;28;19970;-70
2023/10/08 04:49:07;;;;;;;;;;;17.40;99.90;;;;;;8401963;28;20367;-71
2023/10/08 04:53:09;;;;;;;;;;;17.40;99.90;;;;;;8421304;28;19924;-71
2023/10/08 04:57:15;;;;;;;;;;;17.40;99.90;;;;;;8412069;28;20371;-70
2023/10/08 05:01:17;;;;;;;;;;;17.40;99.90;;;;;;8407038;28;19924;-71
2023/10/08 05:13:30;;;;;;;;;;;17.40;99.90;;;;;;8412204;28;19960;-70
2023/10/08 05:17:45;;;;;;;;;;;17.40;99.90;;;;;;8418739;28;19924;-70
2023/10/08 05:22:05;;;;;;;;;;;17.40;99.90;;;;;;8412404;28;19935;-70
2023/10/08 05:30:16;;;;;;;;;;;17.50;99.90;;;;;;8415843;28;19928;-70
2023/10/08 05:34:32;;;;;;;;;;;17.40;99.90;;;;;;8419793;28;19924;-70
2023/10/08 05:38:48;;;;;;;;;;;17.40;99.90;;;;;;8400868;28;19924;-71
2023/10/08 05:59:18;;;;;;;;;;;17.30;99.90;;;;;;8422699;28;19981;-70
2023/10/08 06:03:32;;;;;;;;;;;17.20;99.90;;;;;;8423272;28;19932;-70
2023/10/08 06:07:47;;;;;;;;;;;17.10;99.90;;;;;;8424313;28;20078;-71
2023/10/08 06:16:13;;;;;;;;;;;17.10;99.90;;;;;;8427874;28;19955;-70
2023/10/08 06:20:16;;;;;;;;;;;17.00;99.90;;;;;;8404028;28;19924;-70
2023/10/08 06:24:20;;;;;;;;;;;16.90;99.90;;;;;;8425898;28;20006;-70
2023/10/08 06:28:25;;;;;;;;;;;16.80;99.90;;;;;;8417763;28;19959;-70
2023/10/08 06:32:26;;;;;;;;;;;16.70;99.90;;;;;;8410093;28;19928;-70
2023/10/08 06:36:32;;;;;;;;;;;16.70;99.90;;;;;;8397095;28;20303;-70
2023/10/08 06:44:43;;;;;;;;;;;16.50;99.90;;;;;;8419385;28;19924;-70
2023/10/08 06:48:45;;;;;;;;;;;16.50;99.90;;;;;;8407041;28;19935;-70
2023/10/08 06:52:49;;;;;;;;;;;16.40;99.90;;;;;;8418385;28;19932;-70
2023/10/08 06:56:53;;;;;;;;;;;16.30;99.90;;;;;;8415112;28;19924;-70
2023/10/08 07:00:55;;;;;;;;;;;16.30;99.90;;;;;;8416549;28;20449;-71
2023/10/08 07:04:57;;;;;;;;;;;16.20;99.90;;;;;;8426517;28;20021;-70
2023/10/08 07:09:04;;;;;;;;;;;16.20;99.90;;;;;;8407258;28;19931;-70
2023/10/08 07:13:07;;;;;;;;;;;16.20;99.90;;;;;;8420471;28;19938;-70
2023/10/08 07:17:12;;;;;;;;;;;16.20;99.90;;;;;;8419384;28;19925;-69
2023/10/08 07:21:14;;;;;;;;;;;16.20;99.90;;;;;;8424573;28;19931;-70
2023/10/08 07:25:19;;;;;;;;;;;16.10;99.90;;;;;;8404780;28;19932;-70
2023/10/08 07:29:21;;;;;;;;;;;16.20;99.90;;;;;;8402944;28;19924;-70
2023/10/08 07:33:24;;;;;;;;;;;16.20;99.90;;;;;;8411968;28;20303;-70
2023/10/08 07:37:26;;;;;;;;;;;16.20;99.90;;;;;;8415673;28;20367;-70
2023/10/08 07:41:29;;;;;;;;;;;16.20;99.90;;;;;;8400815;28;19975;-70
2023/10/08 07:45:35;;;;;;;;;;;16.20;99.90;;;;;;8398306;28;19924;-70
2023/10/08 07:49:37;;;;;;;;;;;16.20;99.90;;;;;;8420795;28;19924;-69
2023/10/08 07:53:40;;;;;;;;;;;16.20;99.90;;;;;;8423055;28;20395;-70
2023/10/08 07:57:42;;;;;;;;;;;16.20;99.90;;;;;;8411658;28;19928;-71
2023/10/08 08:01:44;;;;;;;;;;;16.20;99.90;;;;;;8424703;28;20343;-70
2023/10/08 08:05:46;;;;;;;;;;;16.20;99.90;;;;;;8405985;28;20025;-70
2023/10/08 08:09:51;;;;;;;;;;;16.20;99.90;;;;;;8402032;28;19978;-70
2023/10/08 08:13:53;;;;;;;;;;;16.10;99.90;;;;;;8414907;28;19924;-70
2023/10/08 08:17:55;;;;;;;;;;;16.10;99.90;;;;;;8417676;28;19970;-70
2023/10/08 08:22:02;;;;;;;;;;;16.10;99.90;;;;;;8405457;28;19932;-70
2023/10/08 08:26:11;;;;;;;;;;;16.20;99.90;;;;;;8423896;28;19979;-70
2023/10/08 08:30:15;;;;;;;;;;;16.20;99.90;;;;;;8423138;28;19950;-70
2023/10/08 08:34:19;;;;;;;;;;;16.20;99.90;;;;;;8416688;28;19965;-70
2023/10/08 08:38:21;;;;;;;;;;;16.30;99.90;;;;;;8412044;28;19928;-70
2023/10/08 08:42:23;;;;;;;;;;;16.30;99.90;;;;;;8403399;28;19962;-70
2023/10/08 08:46:31;;;;;;;;;;;16.40;99.90;;;;;;8424040;28;19977;-70
2023/10/08 08:50:34;;;;;;;;;;;16.50;99.90;;;;;;8421926;28;19978;-70
2023/10/08 08:54:36;;;;;;;;;;;16.40;99.90;;;;;;8416423;28;20346;-70
2023/10/08 08:58:38;;;;;;;;;;;16.40;99.90;;;;;;8420218;28;20282;-70
2023/10/08 09:02:40;;;;;;;;;;;16.40;99.90;;;;;;8415641;28;19951;-70
2023/10/08 09:06:42;;;;;;;;;;;16.40;99.90;;;;;;8404972;28;19959;-70
2023/10/08 09:10:52;;;;;;;;;;;16.40;99.90;;;;;;8409518;28;19939;-70
2023/10/08 09:15:02;;;;;;;;;;;16.40;99.90;;;;;;8419543;28;20430;-70
2023/10/08 09:19:11;;;;;;;;;;;16.40;99.90;;;;;;8426031;28;19928;-70
2023/10/08 09:23:14;;;;;;;;;;;16.40;99.90;;;;;;8427492;28;20309;-70
2023/10/08 09:27:18;;;;;;;;;;;16.30;99.90;;;;;;8431382;28;19939;-70
2023/10/08 09:31:23;;;;;;;;;;;16.30;99.90;;;;;;8406700;28;19933;-70
2023/10/08 09:35:26;;;;;;;;;;;16.40;99.90;;;;;;8422586;28;19924;-70
2023/10/08 09:39:33;;;;;;;;;;;16.50;99.90;;;;;;8424412;28;20287;-70
2023/10/08 09:43:36;;;;;;;;;;;16.50;99.90;;;;;;8408773;28;20287;-70
2023/10/08 09:47:42;;;;;;;;;;;16.50;99.90;;;;;;8412302;28;19931;-70
2023/10/08 09:51:45;;;;;;;;;;;16.60;99.90;;;;;;8411159;28;19939;-69
2023/10/08 09:55:54;;;;;;;;;;;16.60;99.90;;;;;;8402892;28;19978;-70
2023/10/08 09:59:57;;;;;;;;;;;16.50;99.90;;;;;;8411263;28;19930;-70
2023/10/08 10:03:59;;;;;;;;;;;16.50;99.90;;;;;;8410389;28;19986;-70
2023/10/08 10:08:09;;;;;;;;;;;16.50;99.90;;;;;;8397624;28;19925;-70
2023/10/08 10:12:11;;;;;;;;;;;16.50;99.90;;;;;;8394921;28;19924;-70
2023/10/08 10:16:16;;;;;;;;;;;16.60;99.90;;;;;;8410781;28;19924;-71
2023/10/08 10:20:20;;;;;;;;;;;16.50;99.90;;;;;;8405369;28;20358;-71
2023/10/08 10:24:22;;;;;;;;;;;16.50;99.90;;;;;;8425515;28;20292;-70
2023/10/08 10:28:24;;;;;;;;;;;16.60;99.90;;;;;;8406379;28;20563;-71
2023/10/08 10:32:26;;;;;;;;;;;16.60;99.90;;;;;;8398099;28;19924;-70
2023/10/08 10:36:31;;;;;;;;;;;16.70;99.90;;;;;;8414920;28;20367;-70
2023/10/08 10:40:41;;;;;;;;;;;16.70;99.90;;;;;;8399688;28;19924;-70
2023/10/08 10:44:44;;;;;;;;;;;16.80;99.90;;;;;;8421472;28;20072;-70
2023/10/08 10:49:04;;;;;;;;;;;16.80;99.90;;;;;;8410493;28;19924;-71
2023/10/08 10:53:11;;;;;;;;;;;16.80;99.90;;;;;;8415789;28;19985;-71
2023/10/08 10:57:26;;;;;;;;;;;16.80;99.90;;;;;;8411862;28;19969;-70
2023/10/08 11:01:29;;;;;;;;;;;16.80;99.90;;;;;;8406708;28;19928;-70
2023/10/08 11:05:37;;;;;;;;;;;16.80;99.90;;;;;;8398422;28;19928;-70
2023/10/08 11:09:39;;;;;;;;;;;16.80;99.90;;;;;;8390295;28;19928;-71
2023/10/08 11:13:41;;;;;;;;;;;16.80;99.90;;;;;;8398118;28;19924;-71
2023/10/08 11:17:44;;;;;;;;;;;16.80;99.90;;;;;;8388101;28;19951;-70
2023/10/08 11:21:53;;;;;;;;;;;16.70;99.90;;;;;;8393170;28;19939;-71
2023/10/08 11:25:59;;;;;;;;;;;16.70;99.90;;;;;;8389287;28;20330;-71
2023/10/08 11:30:01;;;;;;;;;;;16.60;99.90;;;;;;8400968;28;19931;-71
2023/10/08 11:34:08;;;;;;;;;;;16.60;99.90;;;;;;8386135;28;19932;-70
2023/10/08 11:38:22;;;;;;;;;;;16.70;99.90;;;;;;8401235;28;20023;-70
2023/10/08 11:46:40;;;;;;;;;;;16.60;99.90;;;;;;8404117;28;20008;-70
2023/10/08 11:50:43;;;;;;;;;;;16.70;99.90;;;;;;8394252;28;19928;-70
2023/10/08 11:54:48;;;;;;;;;;;16.70;99.90;;;;;;8416034;28;19970;-70
2023/10/08 11:58:51;;;;;;;;;;;16.70;99.90;;;;;;8394341;28;20291;-70
2023/10/08 12:02:56;;;;;;;;;;;16.80;99.90;;;;;;8394409;28;19924;-70
2023/10/08 12:07:01;;;;;;;;;;;16.90;99.90;;;;;;8410086;28;19923;-70
2023/10/08 12:11:03;;;;;;;;;;;16.90;99.90;;;;;;8407191;28;20287;-70
2023/10/08 12:15:08;;;;;;;;;;;17.00;99.90;;;;;;8410203;28;19932;-70
2023/10/08 12:19:15;;;;;;;;;;;17.10;99.90;;;;;;8424846;28;19924;-70
2023/10/08 12:23:29;;;;;;;;;;;17.10;99.90;;;;;;8411808;28;19943;-70
2023/10/08 12:27:30;;;;;;;;;;;17.20;99.90;;;;;;8411772;28;20295;-70
2023/10/08 12:31:33;;;;;;;;;;;17.30;99.90;;;;;;8403142;28;19939;-70
2023/10/08 12:35:37;;;;;;;;;;;17.30;99.90;;;;;;8414875;28;19932;-70
2023/10/08 12:39:56;;;;;;;;;;;17.30;99.90;;;;;;8419567;28;19924;-70
2023/10/08 12:43:58;;;;;;;;;;;17.20;99.90;;;;;;8413202;28;19924;-71
2023/10/08 12:47:59;;;;;;;;;;;17.20;99.90;;;;;;8406082;28;19932;-71
2023/10/08 12:52:02;;;;;;;;;;;17.10;99.90;;;;;;8406997;28;19932;-71
2023/10/08 12:56:07;;;;;;;;;;;17.10;99.90;;;;;;8412488;28;20280;-70
2023/10/08 13:00:09;;;;;;;;;;;17.10;99.90;;;;;;8398524;28;20384;-70
2023/10/08 13:04:15;;;;;;;;;;;17.10;99.90;;;;;;8411273;28;20274;-70
2023/10/08 13:08:19;;;;;;;;;;;17.20;99.90;;;;;;8400824;28;19924;-70
2023/10/08 13:12:21;;;;;;;;;;;17.20;99.90;;;;;;8413012;28;19954;-70
2023/10/08 13:16:30;;;;;;;;;;;17.20;99.90;;;;;;8397231;28;20369;-70
2023/10/08 13:20:34;;;;;;;;;;;17.20;99.90;;;;;;8418560;28;19924;-70
2023/10/08 13:24:35;;;;;;;;;;;17.20;99.90;;;;;;8410716;28;20349;-70
2023/10/08 13:28:37;;;;;;;;;;;17.30;99.90;;;;;;8418281;28;20355;-70
2023/10/08 13:32:39;;;;;;;;;;;17.30;99.90;;;;;;8414139;28;19950;-70
2023/10/08 13:36:42;;;;;;;;;;;17.30;99.90;;;;;;8398879;28;19924;-71
2023/10/08 13:41:01;;;;;;;;;;;17.30;99.90;;;;;;8422724;28;19925;-70
2023/10/08 13:45:07;;;;;;;;;;;17.30;99.90;;;;;;8409445;28;19924;-70
2023/10/08 13:49:10;;;;;;;;;;;17.30;99.90;;;;;;8404472;28;19924;-71
2023/10/08 13:53:13;;;;;;;;;;;17.40;99.90;;;;;;8403064;28;19969;-71
2023/10/08 13:57:15;;;;;;;;;;;17.40;99.90;;;;;;8400332;28;19931;-70
2023/10/08 14:01:20;;;;;;;;;;;17.50;99.90;;;;;;8428525;28;20317;-70
2023/10/08 14:05:24;;;;;;;;;;;17.50;99.90;;;;;;8426502;28;19928;-70
2023/10/08 14:09:35;;;;;;;;;;;17.50;99.90;;;;;;8401448;28;19950;-70
2023/10/08 14:13:37;;;;;;;;;;;17.40;99.90;;;;;;8401887;28;20359;-70
2023/10/08 14:17:48;;;;;;;;;;;17.40;99.90;;;;;;8407238;28;20307;-70
2023/10/08 14:21:53;;;;;;;;;;;17.40;99.90;;;;;;8422880;28;19924;-71
2023/10/08 14:26:03;;;;;;;;;;;17.40;99.90;;;;;;8412834;28;19940;-70
2023/10/08 14:30:05;;;;;;;;;;;17.40;99.90;;;;;;8400008;28;19932;-70
2023/10/08 14:42:57;;;;;;;;;;;17.40;99.90;;;;;;8395486;28;20388;-71
2023/10/08 14:47:02;;;;;;;;;;;17.40;99.90;;;;;;8400817;28;19939;-70
2023/10/08 14:51:06;;;;;;;;;;;17.50;99.90;;;;;;8403938;28;19951;-71
2023/10/08 14:55:08;;;;;;;;;;;17.50;99.90;;;;;;8395338;28;20026;-71
2023/10/08 14:59:10;;;;;;;;;;;17.50;99.90;;;;;;8386748;28;19957;-70
2023/10/08 15:03:12;;;;;;;;;;;17.50;99.90;;;;;;8377263;28;20310;-71
2023/10/08 15:07:17;;;;;;;;;;;17.50;99.90;;;;;;8394833;28;19928;-70
2023/10/08 15:11:19;;;;;;;;;;;17.50;99.90;;;;;;8396623;28;20286;-70
2023/10/08 15:15:24;;;;;;;;;;;17.50;99.90;;;;;;8400308;28;21581;-70
2023/10/08 15:19:27;;;;;;;;;;;17.50;99.90;;;;;;8378413;28;19960;-71
2023/10/08 15:23:32;;;;;;;;;;;17.60;99.90;;;;;;8382591;28;19924;-71
2023/10/08 15:27:34;;;;;;;;;;;17.60;99.90;;;;;;8391103;28;19931;-70
2023/10/08 15:31:36;;;;;;;;;;;17.60;99.90;;;;;;8391826;28;19971;-70
2023/10/08 15:35:37;;;;;;;;;;;17.70;99.90;;;;;;8377118;28;20375;-70
2023/10/08 15:39:40;;;;;;;;;;;17.70;99.90;;;;;;8390012;28;19935;-71
2023/10/08 15:43:44;;;;;;;;;;;17.70;99.90;;;;;;8389243;28;19936;-70
2023/10/08 15:47:46;;;;;;;;;;;17.70;99.90;;;;;;8390920;28;19951;-70
2023/10/08 15:51:48;;;;;;;;;;;17.70;99.90;;;;;;8394437;28;19924;-70
2023/10/08 15:55:49;;;;;;;;;;;17.70;99.90;;;;;;8391261;28;19971;-70
2023/10/08 15:59:52;;;;;;;;;;;17.60;99.90;;;;;;8389478;28;19935;-70
2023/10/08 16:03:53;;;;;;;;;;;17.60;99.90;;;;;;8386656;28;20342;-71
2023/10/08 16:07:58;;;;;;;;;;;17.60;99.90;;;;;;8392634;28;19938;-70
2023/10/08 16:12:00;;;;;;;;;;;17.50;99.90;;;;;;8393695;28;19927;-70
2023/10/08 16:16:01;;;;;;;;;;;17.50;99.90;;;;;;8382179;28;19974;-71
2023/10/08 16:20:13;;;;;;;;;;;17.50;99.90;;;;;;8404708;28;19932;-71
2023/10/08 16:24:15;;;;;;;;;;;17.50;99.90;;;;;;8389103;28;19925;-70
2023/10/08 16:28:18;;;;;;;;;;;17.50;99.90;;;;;;8389031;28;20394;-70
2023/10/08 16:32:20;;;;;;;;;;;17.50;99.90;;;;;;8382148;28;19970;-71
2023/10/08 16:36:21;;;;;;;;;;;17.50;99.90;;;;;;8389965;28;20308;-70
2023/10/08 16:40:23;;;;;;;;;;;17.50;99.90;;;;;;8385757;28;19931;-70
2023/10/08 16:44:26;;;;;;;;;;;17.50;99.90;;;;;;8388747;28;19928;-70
2023/10/08 16:48:27;;;;;;;;;;;17.40;99.90;;;;;;8388494;28;19946;-70
2023/10/08 16:52:29;;;;;;;;;;;17.40;99.90;;;;;;8388386;28;19967;-70
2023/10/08 16:56:31;;;;;;;;;;;17.30;99.90;;;;;;8388953;28;20078;-70
2023/10/08 17:00:33;;;;;;;;;;;17.20;99.90;;;;;;8387738;28;20268;-70
2023/10/08 17:04:35;;;;;;;;;;;17.20;99.90;;;;;;8381884;28;20330;-71
2023/10/08 17:08:38;;;;;;;;;;;17.20;99.90;;;;;;8387284;28;19928;-70
2023/10/08 17:12:40;;;;;;;;;;;17.10;99.90;;;;;;8401858;28;19928;-70
2023/10/08 17:16:42;;;;;;;;;;;17.10;99.90;;;;;;8404566;28;19970;-70
2023/10/08 17:20:44;;;;;;;;;;;17.00;99.90;;;;;;8389839;28;20349;-70
2023/10/08 17:24:47;;;;;;;;;;;17.00;99.90;;;;;;8387927;28;19935;-70
2023/10/08 17:28:48;;;;;;;;;;;17.00;99.90;;;;;;8379440;28;19927;-70
2023/10/08 17:32:51;;;;;;;;;;;17.00;99.90;;;;;;8389205;28;19935;-70
2023/10/08 17:36:53;;;;;;;;;;;17.00;99.90;;;;;;8395579;28;19928;-70
2023/10/08 17:40:55;;;;;;;;;;;16.90;99.90;;;;;;8392428;28;19974;-70
2023/10/08 17:44:58;;;;;;;;;;;16.90;99.90;;;;;;8393360;28;20139;-70
2023/10/08 17:49:00;;;;;;;;;;;16.90;99.90;;;;;;8387208;28;19924;-71
2023/10/08 17:53:02;;;;;;;;;;;16.90;99.90;;;;;;8392063;28;19932;-70
2023/10/08 17:57:06;;;;;;;;;;;16.80;99.90;;;;;;8397824;28;19928;-70
2023/10/08 18:01:13;;;;;;;;;;;16.80;99.90;;;;;;8387514;28;20003;-70
2023/10/08 18:05:19;;;;;;;;;;;16.70;99.90;;;;;;8395626;28;20377;-70
2023/10/08 18:09:21;;;;;;;;;;;16.70;99.90;;;;;;8386101;28;20026;-71
2023/10/08 18:13:30;;;;;;;;;;;16.60;99.90;;;;;;8397797;28;19924;-70
2023/10/08 18:17:32;;;;;;;;;;;16.60;99.90;;;;;;8397320;28;19931;-71
2023/10/08 18:21:38;;;;;;;;;;;16.60;99.90;;;;;;8383414;28;19968;-70
2023/10/08 18:25:40;;;;;;;;;;;16.60;99.90;;;;;;8409251;28;19940;-71
2023/10/08 18:29:41;;;;;;;;;;;16.60;99.90;;;;;;8387888;28;19928;-70
2023/10/08 18:33:43;;;;;;;;;;;16.50;99.90;;;;;;8393451;28;20284;-70
2023/10/08 18:37:45;;;;;;;;;;;16.50;99.90;;;;;;8392074;28;20372;-70
2023/10/08 18:41:47;;;;;;;;;;;16.40;99.90;;;;;;8386555;28;19932;-70
2023/10/08 18:45:49;;;;;;;;;;;16.40;99.90;;;;;;8394151;28;20042;-71
2023/10/08 18:49:52;;;;;;;;;;;16.40;99.90;;;;;;8392034;28;19928;-70
2023/10/08 18:54:01;;;;;;;;;;;16.40;99.90;;;;;;8393044;28;19928;-71
2023/10/08 18:58:04;;;;;;;;;;;16.30;99.90;;;;;;8393000;28;19928;-70
2023/10/08 19:02:05;;;;;;;;;;;16.30;99.90;;;;;;8387233;28;19932;-70
2023/10/08 19:06:07;;;;;;;;;;;16.30;99.90;;;;;;8376199;28;19932;-70
2023/10/08 19:10:10;;;;;;;;;;;16.30;99.90;;;;;;8385721;28;20019;-70
2023/10/08 19:14:11;;;;;;;;;;;16.30;99.90;;;;;;8397439;28;19925;-70
2023/10/08 19:18:15;;;;;;;;;;;16.20;99.90;;;;;;8390449;28;20322;-70
2023/10/08 19:22:17;;;;;;;;;;;16.10;99.90;;;;;;8389907;28;20384;-70
2023/10/08 19:26:25;;;;;;;;;;;16.10;99.90;;;;;;8403744;28;19928;-70
2023/10/08 19:30:32;;;;;;;;;;;16.00;99.90;;;;;;8409885;28;19932;-70
2023/10/08 19:34:36;;;;;;;;;;;16.00;99.90;;;;;;8394541;28;20367;-70
2023/10/08 19:38:37;;;;;;;;;;;16.00;99.90;;;;;;8383071;28;19928;-70
2023/10/08 19:42:39;;;;;;;;;;;16.00;99.90;;;;;;8401237;28;23494;-70
2023/10/08 19:46:41;;;;;;;;;;;16.00;99.90;;;;;;8399531;28;19973;-70
2023/10/08 19:50:43;;;;;;;;;;;16.00;99.90;;;;;;8395693;28;19932;-70
2023/10/08 19:54:46;;;;;;;;;;;16.00;99.90;;;;;;8396662;28;19924;-70
2023/10/08 19:58:47;;;;;;;;;;;15.90;99.90;;;;;;8394815;28;19932;-70
2023/10/08 20:02:49;;;;;;;;;;;15.90;99.90;;;;;;8375733;28;19932;-70
2023/10/08 20:06:52;;;;;;;;;;;15.90;99.90;;;;;;8388783;28;19928;-70
2023/10/08 20:10:54;;;;;;;;;;;15.90;99.90;;;;;;8392595;28;19928;-70
2023/10/08 20:14:57;;;;;;;;;;;15.80;99.90;;;;;;8392827;28;19935;-70
2023/10/08 20:18:59;;;;;;;;;;;15.80;99.90;;;;;;8413361;28;19932;-70
2023/10/08 20:23:01;;;;;;;;;;;15.80;99.90;;;;;;8392624;28;19940;-70
2023/10/08 20:27:02;;;;;;;;;;;15.80;99.90;;;;;;8394472;28;20407;-70
2023/10/08 20:31:06;;;;;;;;;;;15.80;99.90;;;;;;8373755;28;19934;-70
2023/10/08 20:35:09;;;;;;;;;;;15.70;99.90;;;;;;8391507;28;19959;-70
2023/10/08 20:39:11;;;;;;;;;;;15.70;99.90;;;;;;8395581;28;20016;-70
2023/10/08 20:43:13;;;;;;;;;;;15.70;99.90;;;;;;8405859;28;20272;-70
2023/10/08 20:47:14;;;;;;;;;;;15.80;99.90;;;;;;8394534;28;20028;-70
2023/10/08 20:51:19;;;;;;;;;;;15.70;99.90;;;;;;8387568;28;19928;-70
2023/10/08 20:55:24;;;;;;;;;;;15.70;99.90;;;;;;8390460;28;20314;-70
2023/10/08 20:59:26;;;;;;;;;;;15.70;99.90;;;;;;8391354;28;19947;-71
2023/10/08 21:03:27;;;;;;;;;;;15.70;99.90;;;;;;8402763;28;19932;-71
2023/10/08 21:07:29;;;;;;;;;;;15.60;99.90;;;;;;8415946;28;19924;-71
2023/10/08 21:11:31;;;;;;;;;;;15.70;99.90;;;;;;8388385;28;19924;-71
2023/10/08 21:15:37;;;;;;;;;;;15.70;99.90;;;;;;8422782;28;19982;-70
2023/10/08 21:19:39;;;;;;;;;;;15.70;99.90;;;;;;8424544;28;20038;-71
2023/10/08 21:23:41;;;;;;;;;;;15.60;99.90;;;;;;8421948;28;19924;-71
2023/10/08 21:27:44;;;;;;;;;;;15.60;99.90;;;;;;8410064;28;20319;-71
2023/10/08 21:31:46;;;;;;;;;;;15.50;99.90;;;;;;8422918;28;19932;-70
2023/10/08 21:35:48;;;;;;;;;;;15.40;99.90;;;;;;8398747;28;20277;-70
2023/10/08 21:39:49;;;;;;;;;;;15.40;99.90;;;;;;8423253;28;19930;-71
2023/10/08 21:43:51;;;;;;;;;;;15.30;99.90;;;;;;8414460;28;20366;-71
2023/10/08 21:47:53;;;;;;;;;;;15.20;99.90;;;;;;8404506;28;19956;-70
2023/10/08 21:51:55;;;;;;;;;;;15.10;99.90;;;;;;8408865;28;20048;-70
2023/10/08 21:56:04;;;;;;;;;;;15.00;99.90;;;;;;8411213;28;19931;-71
2023/10/08 22:04:25;;;;;;;;;;;14.90;99.90;;;;;;8408657;28;19924;-70
2023/10/08 22:08:27;;;;;;;;;;;14.90;99.90;;;;;;8403244;28;20039;-70
2023/10/08 22:12:31;;;;;;;;;;;14.90;99.90;;;;;;8421938;28;19928;-71
2023/10/08 22:16:33;;;;;;;;;;;14.90;99.90;;;;;;8415083;28;19932;-71
2023/10/08 22:24:40;;;;;;;;;;;14.90;99.90;;;;;;8416076;28;19928;-70
2023/10/08 22:28:42;;;;;;;;;;;14.90;99.90;;;;;;8417538;28;20379;-70
2023/10/08 22:32:45;;;;;;;;;;;15.00;99.90;;;;;;8420784;28;20518;-70
2023/10/08 22:36:47;;;;;;;;;;;15.00;99.90;;;;;;8410884;28;19928;-70
2023/10/08 22:45:03;;;;;;;;;;;15.00;99.90;;;;;;8407416;28;20445;-70
2023/10/08 22:49:05;;;;;;;;;;;15.00;99.90;;;;;;8413559;28;19924;-70
2023/10/08 22:53:08;;;;;;;;;;;15.00;99.90;;;;;;8423781;28;19977;-71
2023/10/08 22:57:10;;;;;;;;;;;15.00;99.90;;;;;;8412430;28;20363;-70
2023/10/08 23:01:12;;;;;;;;;;;15.00;99.90;;;;;;8401829;28;19932;-71
2023/10/08 23:05:14;;;;;;;;;;;15.00;99.90;;;;;;8409034;28;19924;-71
2023/10/08 23:09:15;;;;;;;;;;;15.00;99.90;;;;;;8410252;28;19995;-71
2023/10/08 23:13:17;;;;;;;;;;;15.00;99.90;;;;;;8414169;28;19928;-70
2023/10/08 23:17:21;;;;;;;;;;;15.00;99.90;;;;;;8403206;28;20419;-70
2023/10/08 23:21:25;;;;;;;;;;;15.00;99.90;;;;;;8413840;28;19931;-70
2023/10/08 23:25:27;;;;;;;;;;;15.00;99.90;;;;;;8412857;28;19932;-70
2023/10/08 23:29:29;;;;;;;;;;;15.10;99.90;;;;;;8415531;28;19935;-71
2023/10/08 23:33:34;;;;;;;;;;;15.10;99.90;;;;;;8413923;28;19932;-70
2023/10/08 23:37:39;;;;;;;;;;;15.10;99.90;;;;;;8413408;28;19924;-70
2023/10/08 23:41:50;;;;;;;;;;;15.10;99.90;;;;;;8414236;28;19931;-71
2023/10/08 23:45:55;;;;;;;;;;;15.10;99.90;;;;;;8408430;28;19928;-70
2023/10/08 23:50:13;;;;;;;;;;;15.10;99.90;;;;;;8413127;28;19977;-71
2023/10/08 23:54:56;;;;;;;;;;;15.10;99.90;;;;;;8397491;28;19953;-70
2023/10/08 23:58:44;;;;;;;;;;;15.10;99.90;;;;;;8405099;28;19928;-70
